Time;durP1;ratioP1;P1;durP2;ratioP2;P2;SDS_P1;SDS_P2;PMS_P1;PMS_P2;Temp;Humidity;BMP_temperature;BMP_pressure;BME280_temperature;BME280_humidity;BME280_pressure;Samples;Min_cycle;Max_cycle;Signal;HPM_P1;HPM_P2
2022/07/04 00:00:16;;;;;;;1.13;1.00;;;23.10;62.60;;;;;;5092947;28;20055;-65
2022/07/04 00:02:43;;;;;;;2.20;1.15;;;23.10;62.80;;;;;;5092635;28;20028;-65
2022/07/04 00:05:10;;;;;;;1.30;1.20;;;23.10;62.40;;;;;;5092193;27;20442;-64
2022/07/04 00:07:44;;;;;;;1.15;1.05;;;23.10;62.80;;;;;;5094152;28;20574;-65
2022/07/04 00:10:11;;;;;;;1.33;1.10;;;23.10;63.60;;;;;;5093870;28;20058;-63
2022/07/04 00:12:37;;;;;;;1.20;1.10;;;23.10;62.90;;;;;;5093628;28;20453;-65
2022/07/04 00:15:04;;;;;;;1.38;1.27;;;23.10;63.60;;;;;;5095546;28;20035;-65
2022/07/04 00:17:29;;;;;;;1.02;1.02;;;23.20;63.70;;;;;;5093353;28;20028;-64
2022/07/04 00:19:55;;;;;;;4.10;1.38;;;23.20;64.10;;;;;;5094274;28;20398;-65
2022/07/04 00:22:21;;;;;;;0.90;0.90;;;23.20;64.10;;;;;;5091989;28;20123;-62
2022/07/04 00:24:47;;;;;;;2.03;1.10;;;23.20;64.00;;;;;;5091168;28;20051;-65
2022/07/04 00:27:12;;;;;;;1.45;1.15;;;23.20;64.50;;;;;;5091823;28;20028;-66
2022/07/04 00:29:38;;;;;;;1.95;1.30;;;23.20;65.10;;;;;;5094440;28;20109;-65
2022/07/04 00:32:04;;;;;;;3.88;1.55;;;23.20;65.00;;;;;;5092243;28;20114;-65
2022/07/04 00:34:30;;;;;;;1.67;1.20;;;23.10;64.80;;;;;;5093947;28;20040;-64
2022/07/04 00:36:55;;;;;;;1.38;1.20;;;23.10;65.00;;;;;;5093216;28;20063;-64
2022/07/04 00:39:21;;;;;;;1.30;1.20;;;23.10;64.80;;;;;;5093343;28;20439;-66
2022/07/04 00:41:47;;;;;;;2.35;1.40;;;23.10;65.00;;;;;;5094222;28;20035;-65
2022/07/04 00:44:15;;;;;;;1.25;1.13;;;23.00;65.10;;;;;;5092586;28;20130;-64
2022/07/04 00:46:42;;;;;;;1.20;1.10;;;23.00;64.80;;;;;;5094930;28;20027;-64
2022/07/04 00:49:08;;;;;;;1.90;1.00;;;22.90;64.30;;;;;;5098057;28;20031;-66
2022/07/04 00:51:34;;;;;;;1.10;1.10;;;22.90;64.20;;;;;;5097142;28;20024;-64
2022/07/04 00:54:00;;;;;;;3.17;1.25;;;22.90;64.10;;;;;;5096258;28;20110;-66
2022/07/04 00:56:27;;;;;;;1.40;1.10;;;22.90;64.10;;;;;;5096215;27;20047;-64
2022/07/04 00:58:53;;;;;;;3.90;1.20;;;22.90;64.40;;;;;;5098943;28;20032;-66
2022/07/04 01:01:20;;;;;;;1.85;1.20;;;22.90;64.30;;;;;;5097214;28;20390;-65
2022/07/04 01:03:46;;;;;;;1.75;1.38;;;22.80;64.00;;;;;;5098785;28;20034;-65
2022/07/04 01:06:14;;;;;;;1.13;1.02;;;22.80;64.10;;;;;;5099111;27;20586;-63
2022/07/04 01:08:41;;;;;;;3.35;1.30;;;22.80;64.50;;;;;;5098390;28;20036;-64
2022/07/04 01:11:07;;;;;;;1.30;1.20;;;22.80;64.40;;;;;;5094692;28;20701;-64
2022/07/04 01:13:33;;;;;;;2.58;1.40;;;22.70;64.40;;;;;;5079096;28;20097;-65
2022/07/04 01:15:59;;;;;;;2.63;1.20;;;22.70;64.60;;;;;;5097984;28;20028;-66
2022/07/04 01:18:25;;;;;;;1.35;1.25;;;22.70;65.40;;;;;;5097328;28;20560;-65
2022/07/04 01:20:50;;;;;;;1.17;1.10;;;22.70;65.00;;;;;;5097993;28;20031;-65
2022/07/04 01:23:17;;;;;;;1.48;1.38;;;22.60;65.20;;;;;;5095042;28;20344;-65
2022/07/04 01:25:43;;;;;;;2.55;1.50;;;22.60;65.00;;;;;;5095536;28;20044;-65
2022/07/04 01:28:09;;;;;;;1.67;1.20;;;22.60;65.10;;;;;;5099933;28;20028;-66
2022/07/04 01:30:37;;;;;;;1.50;1.40;;;22.60;65.50;;;;;;5088064;28;20559;-65
2022/07/04 01:33:03;;;;;;;1.35;1.23;;;22.60;65.50;;;;;;5098432;28;20081;-65
2022/07/04 01:35:29;;;;;;;2.40;1.40;;;22.60;65.30;;;;;;5080872;28;20035;-65
2022/07/04 01:37:55;;;;;;;3.63;1.40;;;22.60;65.50;;;;;;5084837;28;20020;-66
2022/07/04 01:40:20;;;;;;;3.63;1.50;;;22.60;65.70;;;;;;5098105;28;22045;-64
2022/07/04 01:42:46;;;;;;;2.53;1.33;;;22.60;65.50;;;;;;5081216;28;20512;-65
2022/07/04 01:45:13;;;;;;;1.50;1.40;;;22.60;65.40;;;;;;5098575;28;20095;-65
2022/07/04 01:47:40;;;;;;;1.50;1.40;;;22.60;65.50;;;;;;5100001;28;20399;-66
2022/07/04 01:50:08;;;;;;;2.72;1.50;;;22.60;65.50;;;;;;5098774;28;20084;-65
2022/07/04 01:52:34;;;;;;;1.88;1.33;;;22.60;65.60;;;;;;5097085;28;20038;-65
2022/07/04 01:55:00;;;;;;;1.48;1.38;;;22.50;65.70;;;;;;5097846;28;20040;-64
2022/07/04 01:57:25;;;;;;;3.33;1.48;;;22.50;65.90;;;;;;5094936;28;20114;-64
2022/07/04 02:02:36;;;;;;;2.60;1.30;;;22.50;66.60;;;;;;5096143;28;20038;-63
2022/07/04 02:05:03;;;;;;;2.30;1.63;;;22.50;68.00;;;;;;5096393;28;20077;-64
2022/07/04 02:07:28;;;;;;;3.30;1.30;;;22.40;67.60;;;;;;5097134;28;20352;-63
2022/07/04 02:09:54;;;;;;;2.65;1.52;;;22.40;68.10;;;;;;5097110;28;20036;-63
2022/07/04 02:15:04;;;;;;;1.80;1.30;;;22.20;69.40;;;;;;5096576;28;20043;-63
2022/07/04 02:17:30;;;;;;;2.03;1.35;;;22.10;69.30;;;;;;5096035;28;20103;-64
2022/07/04 02:19:55;;;;;;;3.03;1.55;;;22.00;69.70;;;;;;5098829;28;20115;-63
2022/07/04 02:22:21;;;;;;;3.22;1.70;;;21.90;69.90;;;;;;5096529;28;20036;-64
2022/07/04 02:24:47;;;;;;;1.45;1.35;;;21.80;70.30;;;;;;5097790;28;20039;-63
2022/07/04 02:27:13;;;;;;;1.60;1.50;;;21.80;70.70;;;;;;5097155;28;20047;-64
2022/07/04 02:29:40;;;;;;;2.15;1.85;;;21.80;71.00;;;;;;5096618;28;20027;-63
2022/07/04 02:32:06;;;;;;;3.65;1.80;;;21.80;71.40;;;;;;5096452;28;20024;-65
2022/07/04 02:34:32;;;;;;;2.47;1.90;;;21.70;71.50;;;;;;5095509;28;20639;-63
2022/07/04 02:36:57;;;;;;;5.72;1.88;;;21.70;72.00;;;;;;5096504;28;20130;-63
2022/07/04 02:39:24;;;;;;;3.05;1.58;;;21.70;72.00;;;;;;5097019;28;20051;-63
2022/07/04 02:41:49;;;;;;;4.55;2.00;;;21.70;71.80;;;;;;5097651;28;20040;-63
2022/07/04 02:44:15;;;;;;;6.32;1.83;;;21.70;72.00;;;;;;5096800;28;20089;-63
2022/07/04 02:46:41;;;;;;;2.70;1.70;;;21.60;72.30;;;;;;5095072;28;20033;-63
2022/07/04 02:49:07;;;;;;;4.20;1.98;;;21.50;72.50;;;;;;5096016;28;20777;-63
2022/07/04 02:51:32;;;;;;;2.80;1.77;;;21.50;72.60;;;;;;5096385;28;20119;-64
2022/07/04 02:53:58;;;;;;;4.68;1.80;;;21.50;72.70;;;;;;5097512;28;20093;-64
2022/07/04 02:56:24;;;;;;;4.82;1.92;;;21.40;72.90;;;;;;5095144;28;20336;-65
2022/07/04 02:58:50;;;;;;;1.98;1.60;;;21.30;73.50;;;;;;5096045;28;20375;-63
2022/07/04 03:01:16;;;;;;;1.88;1.60;;;21.30;73.80;;;;;;5096726;28;20043;-63
2022/07/04 03:03:42;;;;;;;2.63;1.65;;;21.30;74.00;;;;;;5095547;28;20452;-63
2022/07/04 03:06:08;;;;;;;2.97;1.98;;;21.40;74.00;;;;;;5096459;28;20043;-63
2022/07/04 03:08:34;;;;;;;2.13;1.80;;;21.40;74.30;;;;;;5095437;28;20474;-63
2022/07/04 03:11:01;;;;;;;2.40;2.20;;;21.40;74.30;;;;;;5093507;28;20409;-63
2022/07/04 03:13:26;;;;;;;2.20;2.00;;;21.40;74.30;;;;;;5095444;28;20470;-63
2022/07/04 03:15:52;;;;;;;2.15;1.95;;;21.40;74.20;;;;;;5095117;28;20088;-63
2022/07/04 03:18:18;;;;;;;1.90;1.80;;;21.40;74.20;;;;;;5095633;28;20027;-63
2022/07/04 03:20:44;;;;;;;3.05;1.85;;;21.40;74.40;;;;;;5096497;28;20042;-63
2022/07/04 03:23:10;;;;;;;2.03;1.88;;;21.30;74.70;;;;;;5095759;28;20028;-63
2022/07/04 03:25:35;;;;;;;3.65;1.98;;;21.30;75.00;;;;;;5094454;27;20024;-63
2022/07/04 03:28:01;;;;;;;2.00;1.80;;;21.30;75.10;;;;;;5096706;28;20032;-63
2022/07/04 03:30:27;;;;;;;2.58;1.70;;;21.30;75.10;;;;;;5093901;28;20444;-63
2022/07/04 03:32:53;;;;;;;2.65;1.90;;;21.20;75.10;;;;;;5095318;28;20435;-63
2022/07/04 03:35:18;;;;;;;1.65;1.55;;;21.30;75.10;;;;;;5096214;28;20641;-63
2022/07/04 03:37:44;;;;;;;2.45;1.67;;;21.20;75.10;;;;;;5097181;28;20040;-63
2022/07/04 03:40:10;;;;;;;2.13;1.80;;;21.30;74.90;;;;;;5097388;28;20028;-64
2022/07/04 03:42:36;;;;;;;3.78;1.40;;;21.30;74.70;;;;;;5097084;28;20032;-63
2022/07/04 03:45:02;;;;;;;3.85;1.50;;;21.30;74.40;;;;;;5097145;28;20226;-62
2022/07/04 03:47:28;;;;;;;3.25;1.48;;;21.30;74.10;;;;;;5097202;28;20035;-63
2022/07/04 03:49:53;;;;;;;2.60;1.60;;;21.20;73.70;;;;;;5097209;28;20024;-63
2022/07/04 03:52:19;;;;;;;5.85;1.52;;;21.20;73.50;;;;;;5098039;28;20062;-63
2022/07/04 03:54:44;;;;;;;2.28;1.63;;;21.20;73.70;;;;;;5097859;28;20482;-63
2022/07/04 03:57:10;;;;;;;1.50;1.40;;;21.20;73.70;;;;;;5095591;28;20043;-63
2022/07/04 03:59:36;;;;;;;1.88;1.35;;;21.10;73.70;;;;;;5098163;28;20123;-63
2022/07/04 04:02:01;;;;;;;2.80;1.52;;;21.10;73.70;;;;;;5096231;28;20297;-62
2022/07/04 04:07:11;;;;;;;4.27;1.53;;;21.10;73.70;;;;;;5096030;28;20085;-63
2022/07/04 04:09:37;;;;;;;1.42;1.33;;;21.10;73.30;;;;;;5097611;28;20411;-63
2022/07/04 04:12:03;;;;;;;1.60;1.50;;;21.10;73.60;;;;;;5096264;28;20123;-63
2022/07/04 04:14:28;;;;;;;2.38;1.40;;;21.00;73.90;;;;;;5097297;28;20518;-61
2022/07/04 04:16:54;;;;;;;1.52;1.40;;;21.00;73.60;;;;;;5096656;28;20034;-63
2022/07/04 04:19:20;;;;;;;2.72;1.30;;;21.00;73.70;;;;;;5096692;28;20111;-62
2022/07/04 04:21:46;;;;;;;1.48;1.25;;;21.00;73.60;;;;;;5096828;28;20050;-63
2022/07/04 04:24:11;;;;;;;2.42;1.40;;;21.00;73.70;;;;;;5094716;28;20440;-63
2022/07/04 04:26:37;;;;;;;1.75;1.50;;;20.90;73.80;;;;;;5097245;28;20105;-63
2022/07/04 04:29:03;;;;;;;2.03;1.70;;;21.00;73.90;;;;;;5095301;28;20134;-62
2022/07/04 04:31:30;;;;;;;1.67;1.35;;;21.10;74.00;;;;;;5078998;28;20494;-63
2022/07/04 04:33:56;;;;;;;3.78;1.80;;;21.10;73.90;;;;;;5097078;28;20100;-62
2022/07/04 04:36:22;;;;;;;2.45;1.65;;;21.10;73.90;;;;;;5095428;28;20027;-62
2022/07/04 04:38:47;;;;;;;2.47;1.67;;;21.00;73.90;;;;;;5095435;28;20039;-63
2022/07/04 04:41:13;;;;;;;2.22;1.70;;;21.10;73.90;;;;;;5096978;28;20121;-63
2022/07/04 04:43:39;;;;;;;5.10;1.33;;;21.10;73.90;;;;;;5095781;28;20048;-63
2022/07/04 04:46:04;;;;;;;3.47;1.60;;;21.10;74.00;;;;;;5097410;28;20078;-62
2022/07/04 04:48:30;;;;;;;1.63;1.52;;;21.10;73.80;;;;;;5094482;28;20031;-62
2022/07/04 04:50:55;;;;;;;1.58;1.23;;;21.10;73.70;;;;;;5096219;28;20165;-63
2022/07/04 04:53:25;;;;;;;2.35;1.40;;;21.10;73.90;;;;;;5096677;28;20146;-63
2022/07/04 04:55:51;;;;;;;5.30;1.40;;;21.00;73.70;;;;;;5093665;28;20154;-63
2022/07/04 04:58:18;;;;;;;2.78;1.40;;;21.00;73.80;;;;;;5096014;28;20484;-63
2022/07/04 05:00:43;;;;;;;1.75;1.63;;;21.00;73.80;;;;;;5095623;28;20044;-63
2022/07/04 05:03:09;;;;;;;2.42;1.48;;;21.00;73.90;;;;;;5097519;28;20028;-63
2022/07/04 05:05:34;;;;;;;1.45;1.35;;;21.00;73.90;;;;;;5095631;28;20521;-64
2022/07/04 05:08:00;;;;;;;3.45;1.35;;;21.00;73.90;;;;;;5095294;28;20063;-64
2022/07/04 05:10:26;;;;;;;5.50;1.30;;;21.00;73.80;;;;;;5094846;28;20081;-63
2022/07/04 05:12:51;;;;;;;3.15;1.40;;;21.00;74.70;;;;;;5094336;28;20043;-63
2022/07/04 05:15:17;;;;;;;2.65;1.52;;;21.00;74.00;;;;;;5096615;28;20039;-63
2022/07/04 05:17:43;;;;;;;1.98;1.45;;;21.00;74.20;;;;;;5094932;28;20479;-63
2022/07/04 05:20:09;;;;;;;3.05;1.50;;;21.00;74.00;;;;;;5096113;28;20032;-64
2022/07/04 05:22:35;;;;;;;1.50;1.40;;;21.00;73.90;;;;;;5095264;28;20091;-64
2022/07/04 05:25:00;;;;;;;3.17;1.33;;;21.00;73.90;;;;;;5096041;28;20035;-63
2022/07/04 05:27:26;;;;;;;2.10;1.58;;;20.90;73.90;;;;;;5095174;28;20039;-63
2022/07/04 05:29:52;;;;;;;5.03;1.48;;;21.00;74.20;;;;;;5095233;28;20323;-64
2022/07/04 05:32:17;;;;;;;2.00;1.60;;;20.90;74.20;;;;;;5095084;28;20123;-62
2022/07/04 05:34:43;;;;;;;5.63;1.88;;;20.90;74.30;;;;;;5095383;28;21091;-63
2022/07/04 05:37:09;;;;;;;4.80;1.50;;;21.00;74.40;;;;;;5095758;28;20036;-63
2022/07/04 05:39:34;;;;;;;2.60;1.52;;;21.00;74.40;;;;;;5099942;28;20042;-63
2022/07/04 05:42:00;;;;;;;2.88;1.58;;;21.00;74.40;;;;;;5099371;28;20038;-64
2022/07/04 05:44:26;;;;;;;2.90;1.67;;;21.00;74.50;;;;;;5099798;28;20585;-64
2022/07/04 05:46:51;;;;;;;1.80;1.70;;;21.00;74.60;;;;;;5096861;28;20046;-63
2022/07/04 05:49:17;;;;;;;2.95;1.80;;;21.00;74.70;;;;;;5099292;27;20044;-64
2022/07/04 05:51:42;;;;;;;3.78;1.70;;;21.00;75.00;;;;;;5096604;28;20038;-63
2022/07/04 05:54:08;;;;;;;2.80;1.80;;;21.00;74.90;;;;;;5100423;28;20028;-63
2022/07/04 05:56:34;;;;;;;3.53;1.42;;;21.00;74.70;;;;;;5098061;28;20375;-64
2022/07/04 05:58:59;;;;;;;2.17;1.63;;;21.00;74.70;;;;;;5097518;28;20035;-63
2022/07/04 06:01:25;;;;;;;2.20;1.35;;;21.00;75.80;;;;;;5098854;28;20032;-64
2022/07/04 06:03:51;;;;;;;3.92;1.80;;;21.10;75.40;;;;;;5078662;28;20040;-63
2022/07/04 06:06:16;;;;;;;1.38;1.27;;;21.10;75.80;;;;;;5100233;28;20082;-64
2022/07/04 06:08:42;;;;;;;3.47;1.38;;;21.20;75.20;;;;;;5099403;27;20729;-65
2022/07/04 06:11:08;;;;;;;3.10;1.40;;;21.30;74.90;;;;;;5098330;28;20126;-65
2022/07/04 06:13:34;;;;;;;2.13;1.40;;;21.40;74.80;;;;;;5097308;28;20039;-64
2022/07/04 06:15:59;;;;;;;2.28;1.80;;;21.40;74.40;;;;;;5096748;28;20478;-63
2022/07/04 06:18:27;;;;;;;3.78;1.60;;;21.50;74.40;;;;;;5098015;27;20533;-63
2022/07/04 06:20:52;;;;;;;2.47;1.58;;;21.50;74.60;;;;;;5096830;27;20472;-63
2022/07/04 06:23:18;;;;;;;4.47;1.70;;;21.50;74.40;;;;;;5098905;28;20028;-61
2022/07/04 06:25:44;;;;;;;2.03;1.70;;;21.60;74.20;;;;;;5098508;28;20127;-63
2022/07/04 06:28:10;;;;;;;4.32;1.58;;;21.60;75.10;;;;;;5100133;28;20508;-63
2022/07/04 06:30:35;;;;;;;1.52;1.30;;;21.70;73.90;;;;;;5097882;27;20035;-64
2022/07/04 06:33:01;;;;;;;2.25;1.30;;;21.70;73.40;;;;;;5098626;28;20039;-64
2022/07/04 06:35:45;;;;;;;1.23;1.20;;;21.70;73.10;;;;;;5098043;28;20028;-63
2022/07/04 06:38:29;;;;;;;2.00;1.48;;;21.80;73.50;;;;;;5099413;27;20561;-63
2022/07/04 06:40:59;;;;;;;2.25;1.45;;;21.80;73.70;;;;;;5099642;27;20031;-63
2022/07/04 06:43:25;;;;;;;3.40;1.48;;;21.80;73.70;;;;;;5098650;28;20032;-63
2022/07/04 06:45:51;;;;;;;5.57;1.50;;;21.90;74.20;;;;;;5097164;28;20472;-63
2022/07/04 06:48:18;;;;;;;3.65;1.60;;;21.90;72.80;;;;;;5097952;28;20126;-64
2022/07/04 06:50:43;;;;;;;2.13;1.55;;;21.90;73.00;;;;;;5096372;28;20348;-64
2022/07/04 06:53:10;;;;;;;2.55;1.70;;;21.90;73.50;;;;;;5097509;28;20036;-64
2022/07/04 06:55:40;;;;;;;1.80;1.40;;;21.90;73.50;;;;;;5097223;28;20028;-64
2022/07/04 06:58:07;;;;;;;5.07;1.70;;;21.90;73.10;;;;;;5098320;28;20032;-64
2022/07/04 07:00:33;;;;;;;2.75;1.33;;;22.00;73.00;;;;;;5097617;28;20105;-63
2022/07/04 07:03:00;;;;;;;2.42;1.42;;;22.00;73.00;;;;;;5097686;28;20483;-64
2022/07/04 07:05:26;;;;;;;3.78;1.60;;;22.00;74.00;;;;;;5096187;27;20040;-63
2022/07/04 07:07:52;;;;;;;3.67;1.40;;;22.00;73.10;;;;;;5096739;28;20036;-63
2022/07/04 07:10:18;;;;;;;1.90;1.50;;;22.00;73.50;;;;;;5085517;28;20046;-64
2022/07/04 07:12:44;;;;;;;2.65;1.63;;;22.10;73.70;;;;;;5095843;28;20499;-64
2022/07/04 07:15:10;;;;;;;2.78;1.63;;;22.10;73.50;;;;;;5096103;28;20123;-64
2022/07/04 07:17:35;;;;;;;1.73;1.50;;;22.10;73.70;;;;;;5086057;28;20028;-63
2022/07/04 07:20:02;;;;;;;2.42;1.52;;;22.20;73.70;;;;;;5096041;28;20024;-64
2022/07/04 07:22:27;;;;;;;1.30;1.20;;;22.20;73.60;;;;;;5096269;28;20028;-64
2022/07/04 07:24:53;;;;;;;4.10;1.40;;;22.20;73.40;;;;;;5096477;28;20028;-64
2022/07/04 07:27:19;;;;;;;2.60;1.42;;;22.30;73.00;;;;;;5098396;28;20040;-65
2022/07/04 07:29:44;;;;;;;4.38;1.48;;;22.30;72.90;;;;;;5097626;28;20044;-64
2022/07/04 07:32:10;;;;;;;2.60;1.20;;;22.40;72.60;;;;;;5095857;28;20032;-64
2022/07/04 07:34:35;;;;;;;1.92;1.33;;;22.50;72.30;;;;;;5097050;28;20055;-64
2022/07/04 07:37:01;;;;;;;1.83;1.27;;;22.50;71.80;;;;;;5095356;27;20043;-65
2022/07/04 07:39:27;;;;;;;1.38;1.27;;;22.60;71.90;;;;;;5096200;28;20111;-64
2022/07/04 07:41:53;;;;;;;1.95;1.40;;;22.70;72.10;;;;;;5083033;28;20122;-64
2022/07/04 07:44:19;;;;;;;1.33;1.20;;;22.70;71.80;;;;;;5096175;28;20105;-64
2022/07/04 07:46:44;;;;;;;1.92;1.10;;;22.80;71.90;;;;;;5096023;28;20067;-63
2022/07/04 07:49:10;;;;;;;1.00;0.95;;;22.90;71.80;;;;;;5096963;28;20032;-64
2022/07/04 07:51:36;;;;;;;2.35;1.00;;;23.00;72.00;;;;;;5095090;28;20040;-64
2022/07/04 07:54:01;;;;;;;1.23;0.90;;;23.10;72.20;;;;;;5095339;28;20541;-64
2022/07/04 07:56:27;;;;;;;1.85;1.20;;;23.20;71.80;;;;;;5096759;28;20038;-64
2022/07/04 07:58:54;;;;;;;1.20;1.10;;;23.30;71.00;;;;;;5096850;28;20031;-64
2022/07/04 08:01:20;;;;;;;1.98;1.20;;;23.30;70.60;;;;;;5094059;28;20032;-64
2022/07/04 08:06:31;;;;;;;1.75;1.02;;;23.40;70.00;;;;;;5096239;28;20043;-64
2022/07/04 08:08:56;;;;;;;2.00;1.13;;;23.50;70.00;;;;;;5098018;28;20028;-64
2022/07/04 08:11:22;;;;;;;0.95;0.95;;;23.60;69.70;;;;;;5096838;28;20031;-64
2022/07/04 08:13:48;;;;;;;2.53;1.10;;;23.60;69.50;;;;;;5095514;28;20048;-65
2022/07/04 08:16:14;;;;;;;1.00;0.95;;;23.70;69.00;;;;;;5095974;28;20214;-64
2022/07/04 08:18:40;;;;;;;1.38;0.98;;;23.80;69.00;;;;;;5095959;28;20107;-65
2022/07/04 08:21:06;;;;;;;2.90;1.25;;;23.80;69.40;;;;;;5097110;28;20039;-64
2022/07/04 08:23:32;;;;;;;1.00;0.90;;;23.90;69.20;;;;;;5096497;28;20032;-65
2022/07/04 08:26:00;;;;;;;3.15;0.82;;;24.00;68.20;;;;;;5094650;28;20031;-64
2022/07/04 08:28:26;;;;;;;1.10;0.93;;;24.10;66.70;;;;;;5097494;28;20056;-65
2022/07/04 08:30:52;;;;;;;2.63;2.42;;;24.10;66.80;;;;;;5098186;28;20651;-64
2022/07/04 08:33:18;;;;;;;2.13;1.15;;;24.20;67.10;;;;;;5097382;28;20390;-64
2022/07/04 08:35:44;;;;;;;1.45;0.93;;;24.20;67.20;;;;;;5095306;28;20032;-64
2022/07/04 08:38:09;;;;;;;0.80;0.80;;;24.20;66.60;;;;;;5094719;28;20030;-64
2022/07/04 08:40:35;;;;;;;1.25;0.93;;;24.30;67.00;;;;;;5098080;28;20024;-64
2022/07/04 08:43:04;;;;;;;1.42;0.90;;;24.40;67.00;;;;;;5095909;28;20111;-65
2022/07/04 08:45:33;;;;;;;0.98;0.90;;;24.40;66.00;;;;;;5096473;28;20031;-64
2022/07/04 08:48:09;;;;;;;1.17;0.90;;;24.50;65.30;;;;;;5096178;28;20055;-65
2022/07/04 08:50:35;;;;;;;2.60;0.88;;;24.60;65.00;;;;;;5095556;28;20036;-64
2022/07/04 08:53:15;;;;;;;1.38;0.90;;;24.70;65.20;;;;;;5094068;28;20536;-64
2022/07/04 08:58:30;;;;;;;1.13;0.90;;;24.90;64.50;;;;;;5096125;28;20031;-65
2022/07/04 09:01:04;;;;;;;1.38;1.00;;;25.00;63.60;;;;;;5097144;28;20028;-64
2022/07/04 09:03:31;;;;;;;1.10;0.87;;;25.00;62.60;;;;;;5096169;28;20177;-64
2022/07/04 09:05:58;;;;;;;1.58;1.08;;;25.00;62.90;;;;;;5096400;28;20360;-64
2022/07/04 09:08:24;;;;;;;1.80;1.05;;;25.10;62.20;;;;;;5077993;28;20153;-64
2022/07/04 09:10:51;;;;;;;4.13;1.02;;;25.10;61.90;;;;;;5099350;28;20042;-64
2022/07/04 09:13:17;;;;;;;1.27;1.00;;;25.00;62.60;;;;;;5100966;28;20406;-64
2022/07/04 09:15:45;;;;;;;1.80;1.13;;;25.00;62.90;;;;;;5101265;28;20044;-64
2022/07/04 09:18:29;;;;;;;2.45;1.00;;;25.00;62.90;;;;;;5100500;28;20035;-64
2022/07/04 09:20:57;;;;;;;0.93;0.80;;;25.10;61.80;;;;;;5099649;28;20159;-64
2022/07/04 09:23:26;;;;;;;1.17;1.08;;;25.10;62.90;;;;;;5100112;28;20029;-65
2022/07/04 09:26:13;;;;;;;2.58;1.30;;;25.20;62.40;;;;;;5099939;28;20043;-64
2022/07/04 09:28:41;;;;;;;3.25;1.00;;;25.20;62.90;;;;;;5098678;28;20035;-64
2022/07/04 09:31:23;;;;;;;1.52;1.10;;;25.20;62.50;;;;;;5100813;28;20036;-64
2022/07/04 09:33:52;;;;;;;1.25;1.15;;;25.30;62.30;;;;;;5100802;28;20028;-63
2022/07/04 09:36:20;;;;;;;1.65;0.90;;;25.30;62.30;;;;;;5099592;28;20046;-64
2022/07/04 09:39:03;;;;;;;1.05;0.80;;;25.30;61.80;;;;;;5099716;28;20405;-64
2022/07/04 09:41:35;;;;;;;2.65;0.90;;;25.30;61.80;;;;;;5100544;28;20051;-66
2022/07/04 09:44:04;;;;;;;1.17;0.90;;;25.40;62.40;;;;;;5099890;28;20114;-64
2022/07/04 09:46:30;;;;;;;1.13;0.90;;;25.40;61.90;;;;;;5099523;28;20556;-65
2022/07/04 09:48:56;;;;;;;2.58;0.90;;;25.50;61.80;;;;;;5100938;28;20043;-64
2022/07/04 09:51:37;;;;;;;2.20;1.00;;;25.60;61.90;;;;;;5100005;28;20375;-64
2022/07/04 09:54:22;;;;;;;2.20;1.00;;;25.70;60.70;;;;;;5098794;28;20059;-64
2022/07/04 09:56:54;;;;;;;1.88;1.00;;;25.80;60.10;;;;;;5098836;28;20042;-64
2022/07/04 09:59:21;;;;;;;2.65;1.10;;;25.90;59.80;;;;;;5099585;28;21963;-65
2022/07/04 10:01:47;;;;;;;1.35;1.13;;;26.00;59.80;;;;;;5099948;28;20036;-64
2022/07/04 10:04:14;;;;;;;2.15;1.00;;;26.00;59.50;;;;;;5100506;28;20040;-66
2022/07/04 10:06:41;;;;;;;1.70;1.00;;;26.10;59.30;;;;;;5100222;28;20522;-65
2022/07/04 10:09:17;;;;;;;2.83;1.20;;;26.10;59.20;;;;;;5100639;28;20032;-64
2022/07/04 10:11:46;;;;;;;1.95;1.08;;;26.10;59.20;;;;;;5097343;28;20398;-64
2022/07/04 10:14:13;;;;;;;1.10;1.00;;;26.10;59.10;;;;;;5098852;28;20036;-64
2022/07/04 10:16:39;;;;;;;1.17;1.08;;;26.20;59.40;;;;;;5100538;27;20530;-64
2022/07/04 10:19:06;;;;;;;1.67;1.08;;;26.20;59.00;;;;;;5099923;28;20084;-65
2022/07/04 10:21:32;;;;;;;1.40;1.10;;;26.20;59.20;;;;;;5097639;27;20066;-64
2022/07/04 10:23:59;;;;;;;1.10;0.98;;;26.30;59.00;;;;;;5098217;28;20115;-64
2022/07/04 10:26:26;;;;;;;1.17;1.08;;;26.30;57.70;;;;;;5097513;28;20528;-64
2022/07/04 10:28:52;;;;;;;1.20;1.00;;;26.30;57.70;;;;;;5097709;28;20534;-65
2022/07/04 10:31:20;;;;;;;0.82;0.82;;;26.30;57.60;;;;;;5099327;28;20079;-64
2022/07/04 10:33:46;;;;;;;1.98;1.10;;;26.30;57.90;;;;;;5099775;28;20086;-64
2022/07/04 10:36:20;;;;;;;1.33;0.90;;;26.30;58.60;;;;;;5098837;28;20460;-65
2022/07/04 10:38:54;;;;;;;1.13;1.00;;;26.40;58.00;;;;;;5098844;28;20504;-64
2022/07/04 10:41:22;;;;;;;1.85;0.90;;;26.50;58.20;;;;;;5097384;27;20024;-65
2022/07/04 10:43:48;;;;;;;1.55;1.05;;;26.60;58.50;;;;;;5099235;28;20031;-65
2022/07/04 10:46:14;;;;;;;3.95;1.30;;;26.70;58.50;;;;;;5099021;28;20042;-65
2022/07/04 10:49:00;;;;;;;1.23;1.02;;;26.80;58.00;;;;;;5098923;27;20036;-65
2022/07/04 10:51:49;;;;;;;1.67;1.00;;;26.90;57.60;;;;;;5098746;28;20028;-64
2022/07/04 10:54:16;;;;;;;2.35;0.90;;;27.00;57.80;;;;;;5099123;27;20120;-64
2022/07/04 10:57:21;;;;;;;1.38;0.80;;;27.10;58.00;;;;;;5097615;27;20042;-65
2022/07/04 10:59:52;;;;;;;1.95;1.00;;;27.30;57.60;;;;;;5097558;28;20506;-65
2022/07/04 11:02:18;;;;;;;1.67;0.90;;;27.40;57.60;;;;;;5099992;27;20114;-65
2022/07/04 11:05:02;;;;;;;0.90;0.80;;;27.50;57.60;;;;;;5097375;27;20664;-65
2022/07/04 11:07:37;;;;;;;0.80;0.80;;;27.60;56.90;;;;;;5097684;28;20122;-64
2022/07/04 11:12:58;;;;;;;1.80;0.80;;;27.70;57.00;;;;;;5094515;28;20387;-64
2022/07/04 11:15:32;;;;;;;1.42;0.95;;;27.70;56.10;;;;;;5098552;28;20516;-65
2022/07/04 11:18:04;;;;;;;1.30;0.90;;;27.80;56.00;;;;;;5099644;28;20036;-65
2022/07/04 11:20:31;;;;;;;2.20;1.10;;;27.90;55.70;;;;;;5098672;28;20036;-65
2022/07/04 11:23:07;;;;;;;0.90;0.70;;;27.90;55.50;;;;;;5097806;28;20782;-65
2022/07/04 11:25:33;;;;;;;2.55;1.20;;;27.90;55.20;;;;;;5099105;28;20047;-65
2022/07/04 11:28:18;;;;;;;1.80;0.90;;;27.90;55.40;;;;;;5096628;28;20039;-65
2022/07/04 11:30:54;;;;;;;1.73;1.13;;;28.00;55.20;;;;;;5098397;28;21596;-65
2022/07/04 11:33:23;;;;;;;2.58;1.02;;;28.00;56.20;;;;;;5097320;28;20453;-67
2022/07/04 11:36:05;;;;;;;1.30;0.95;;;28.10;56.10;;;;;;5099372;28;20387;-65
2022/07/04 11:38:44;;;;;;;1.75;1.10;;;28.20;55.50;;;;;;5097583;28;20035;-65
2022/07/04 11:46:38;;;;;;;1.67;1.10;;;28.40;54.70;;;;;;5098925;28;20130;-65
2022/07/04 11:49:11;;;;;;;1.63;1.10;;;28.40;54.60;;;;;;5097934;28;20487;-65
2022/07/04 11:51:45;;;;;;;1.75;0.90;;;28.40;54.50;;;;;;5097857;28;20032;-65
2022/07/04 11:54:11;;;;;;;1.98;1.00;;;28.40;54.50;;;;;;5098881;28;20032;-65
2022/07/04 11:56:37;;;;;;;1.20;0.88;;;28.40;54.90;;;;;;5096571;28;20501;-65
2022/07/04 11:59:14;;;;;;;2.03;0.95;;;28.40;55.00;;;;;;5096424;28;20059;-65
2022/07/04 12:01:43;;;;;;;1.95;1.02;;;28.40;53.90;;;;;;5097523;28;20031;-66
2022/07/04 12:04:19;;;;;;;1.70;0.95;;;28.40;54.30;;;;;;5098156;28;20036;-66
2022/07/04 12:06:48;;;;;;;0.77;0.77;;;28.40;53.90;;;;;;5096851;28;20043;-65
2022/07/04 12:09:18;;;;;;;3.17;1.17;;;28.40;53.50;;;;;;5097834;28;20039;-65
2022/07/04 12:11:58;;;;;;;1.35;1.10;;;28.40;54.00;;;;;;5097193;28;20031;-65
2022/07/04 12:14:25;;;;;;;1.30;1.02;;;28.40;54.00;;;;;;5097857;28;20032;-65
2022/07/04 12:17:14;;;;;;;1.10;0.95;;;28.30;54.40;;;;;;5096693;28;20107;-65
2022/07/04 12:19:58;;;;;;;1.77;1.10;;;28.20;54.40;;;;;;5097260;28;20495;-65
2022/07/04 12:22:35;;;;;;;0.98;0.90;;;28.20;54.30;;;;;;5097652;28;20067;-65
2022/07/04 12:25:02;;;;;;;1.10;1.00;;;28.10;54.50;;;;;;5096744;28;20031;-65
2022/07/04 12:27:28;;;;;;;2.53;1.20;;;28.00;54.50;;;;;;5095172;28;20058;-65
2022/07/04 12:29:55;;;;;;;1.20;1.10;;;28.00;54.30;;;;;;5098113;28;20482;-65
2022/07/04 12:32:21;;;;;;;1.25;1.15;;;27.90;54.30;;;;;;5096151;28;20027;-66
2022/07/04 12:34:47;;;;;;;1.30;1.20;;;27.80;55.00;;;;;;5097796;28;20070;-66
2022/07/04 12:37:15;;;;;;;1.92;1.20;;;27.70;54.70;;;;;;5098206;28;20054;-65
2022/07/04 12:39:46;;;;;;;1.63;0.98;;;27.60;55.30;;;;;;5096601;28;20115;-65
2022/07/04 12:42:15;;;;;;;1.38;1.13;;;27.60;55.10;;;;;;5097673;28;20032;-65
2022/07/04 12:44:42;;;;;;;1.33;1.15;;;27.60;55.30;;;;;;5101291;27;20066;-65
2022/07/04 12:47:09;;;;;;;1.40;1.30;;;27.60;55.50;;;;;;5101044;28;20051;-65
2022/07/04 12:49:36;;;;;;;2.80;1.42;;;27.70;55.90;;;;;;5099761;28;20131;-65
2022/07/04 12:52:16;;;;;;;1.20;1.10;;;27.70;55.40;;;;;;5101066;28;20097;-65
2022/07/04 12:54:45;;;;;;;1.52;1.10;;;27.70;55.90;;;;;;5102173;28;20032;-65
2022/07/04 12:57:18;;;;;;;2.40;1.10;;;27.80;55.40;;;;;;5101150;28;20474;-65
2022/07/04 12:59:43;;;;;;;1.15;1.05;;;27.80;55.30;;;;;;5102344;28;20529;-65
2022/07/04 13:02:11;;;;;;;1.30;1.20;;;27.90;55.40;;;;;;5099902;27;20036;-65
2022/07/04 13:04:37;;;;;;;3.53;1.33;;;27.90;55.30;;;;;;5101979;27;20158;-65
2022/07/04 13:07:17;;;;;;;2.22;1.23;;;28.00;54.40;;;;;;5102282;28;20118;-65
2022/07/04 13:09:44;;;;;;;1.23;1.10;;;28.00;53.90;;;;;;5101356;28;20448;-65
2022/07/04 13:12:27;;;;;;;1.02;0.98;;;28.00;54.70;;;;;;5097924;28;20032;-65